sensor_id;sensor_type;location;lat;lon;timestamp;P1;durP1;ratioP1;P2;durP2;ratioP2
5987;SDS011;3021;51.000;6.980;2023-12-29T00:01:45;2.05;;;1.23;;
5987;SDS011;3021;51.000;6.980;2023-12-29T00:04:10;2.58;;;0.93;;
5987;SDS011;3021;51.000;6.980;2023-12-29T00:06:39;4.00;;;1.40;;
5987;SDS011;3021;51.000;6.980;2023-12-29T00:09:05;3.63;;;1.35;;
5987;SDS011;3021;51.000;6.980;2023-12-29T00:11:30;6.07;;;1.35;;
5987;SDS011;3021;51.000;6.980;2023-12-29T00:13:55;1.55;;;1.02;;
5987;SDS011;3021;51.000;6.980;2023-12-29T00:16:21;3.38;;;1.40;;
5987;SDS011;3021;51.000;6.980;2023-12-29T00:18:46;5.00;;;1.55;;
5987;SDS011;3021;51.000;6.980;2023-12-29T00:21:11;6.60;;;2.38;;
5987;SDS011;3021;51.000;6.980;2023-12-29T00:23:37;2.92;;;1.10;;
5987;SDS011;3021;51.000;6.980;2023-12-29T00:26:02;2.53;;;1.40;;
5987;SDS011;3021;51.000;6.980;2023-12-29T00:28:28;7.20;;;1.88;;
5987;SDS011;3021;51.000;6.980;2023-12-29T00:30:53;4.10;;;1.38;;
5987;SDS011;3021;51.000;6.980;2023-12-29T00:33:18;4.63;;;1.27;;
5987;SDS011;3021;51.000;6.980;2023-12-29T00:35:44;5.47;;;1.48;;
5987;SDS011;3021;51.000;6.980;2023-12-29T00:38:09;6.07;;;2.08;;
5987;SDS011;3021;51.000;6.980;2023-12-29T00:40:35;3.75;;;1.30;;
5987;SDS011;3021;51.000;6.980;2023-12-29T00:43:00;4.88;;;1.48;;
5987;SDS011;3021;51.000;6.980;2023-12-29T00:45:26;4.90;;;1.38;;
5987;SDS011;3021;51.000;6.980;2023-12-29T00:47:57;5.25;;;1.35;;
5987;SDS011;3021;51.000;6.980;2023-12-29T00:50:22;4.63;;;1.65;;
5987;SDS011;3021;51.000;6.980;2023-12-29T00:52:47;3.45;;;1.52;;
5987;SDS011;3021;51.000;6.980;2023-12-29T00:55:13;4.38;;;1.73;;
5987;SDS011;3021;51.000;6.980;2023-12-29T00:57:38;3.40;;;1.27;;
5987;SDS011;3021;51.000;6.980;2023-12-29T01:00:04;3.78;;;1.50;;
5987;SDS011;3021;51.000;6.980;2023-12-29T01:02:30;6.85;;;1.40;;
5987;SDS011;3021;51.000;6.980;2023-12-29T01:04:55;8.93;;;1.52;;
5987;SDS011;3021;51.000;6.980;2023-12-29T01:07:20;6.55;;;1.60;;
5987;SDS011;3021;51.000;6.980;2023-12-29T01:09:46;6.65;;;1.65;;
5987;SDS011;3021;51.000;6.980;2023-12-29T01:12:11;8.18;;;1.75;;
5987;SDS011;3021;51.000;6.980;2023-12-29T01:14:36;7.90;;;1.75;;
5987;SDS011;3021;51.000;6.980;2023-12-29T01:17:02;6.38;;;1.70;;
5987;SDS011;3021;51.000;6.980;2023-12-29T01:19:27;6.90;;;1.42;;
5987;SDS011;3021;51.000;6.980;2023-12-29T01:21:53;7.07;;;1.83;;
5987;SDS011;3021;51.000;6.980;2023-12-29T01:24:18;6.25;;;1.50;;
5987;SDS011;3021;51.000;6.980;2023-12-29T01:26:43;5.43;;;1.48;;
5987;SDS011;3021;51.000;6.980;2023-12-29T01:29:08;4.50;;;1.73;;
5987;SDS011;3021;51.000;6.980;2023-12-29T01:31:34;7.22;;;1.52;;
5987;SDS011;3021;51.000;6.980;2023-12-29T01:33:59;6.35;;;1.55;;
5987;SDS011;3021;51.000;6.980;2023-12-29T01:36:25;6.80;;;1.65;;
5987;SDS011;3021;51.000;6.980;2023-12-29T01:38:50;6.43;;;1.77;;
5987;SDS011;3021;51.000;6.980;2023-12-29T01:41:15;4.65;;;1.58;;
5987;SDS011;3021;51.000;6.980;2023-12-29T01:46:21;6.38;;;1.63;;
5987;SDS011;3021;51.000;6.980;2023-12-29T01:48:48;6.43;;;1.98;;
5987;SDS011;3021;51.000;6.980;2023-12-29T01:51:14;6.13;;;1.67;;
5987;SDS011;3021;51.000;6.980;2023-12-29T01:53:40;6.50;;;1.48;;
5987;SDS011;3021;51.000;6.980;2023-12-29T01:56:05;10.45;;;1.83;;
5987;SDS011;3021;51.000;6.980;2023-12-29T01:58:32;5.32;;;1.98;;
5987;SDS011;3021;51.000;6.980;2023-12-29T02:00:57;6.03;;;1.80;;
5987;SDS011;3021;51.000;6.980;2023-12-29T02:03:24;5.88;;;2.00;;
5987;SDS011;3021;51.000;6.980;2023-12-29T02:05:49;8.85;;;1.80;;
5987;SDS011;3021;51.000;6.980;2023-12-29T02:08:15;5.95;;;1.70;;
5987;SDS011;3021;51.000;6.980;2023-12-29T02:10:41;4.32;;;1.80;;
5987;SDS011;3021;51.000;6.980;2023-12-29T02:13:06;8.43;;;2.60;;
5987;SDS011;3021;51.000;6.980;2023-12-29T02:15:31;8.40;;;2.08;;
5987;SDS011;3021;51.000;6.980;2023-12-29T02:17:59;7.00;;;1.73;;
5987;SDS011;3021;51.000;6.980;2023-12-29T02:20:27;7.38;;;1.70;;
5987;SDS011;3021;51.000;6.980;2023-12-29T02:22:54;7.47;;;1.77;;
5987;SDS011;3021;51.000;6.980;2023-12-29T02:25:20;5.55;;;1.48;;
5987;SDS011;3021;51.000;6.980;2023-12-29T02:30:27;8.60;;;1.77;;
5987;SDS011;3021;51.000;6.980;2023-12-29T02:33:00;5.68;;;1.85;;
5987;SDS011;3021;51.000;6.980;2023-12-29T02:35:27;6.40;;;1.45;;
5987;SDS011;3021;51.000;6.980;2023-12-29T02:37:54;7.18;;;1.65;;
5987;SDS011;3021;51.000;6.980;2023-12-29T02:40:20;7.30;;;1.88;;
5987;SDS011;3021;51.000;6.980;2023-12-29T02:42:49;5.90;;;1.85;;
5987;SDS011;3021;51.000;6.980;2023-12-29T02:45:15;4.55;;;1.67;;
5987;SDS011;3021;51.000;6.980;2023-12-29T02:47:41;9.02;;;1.63;;
5987;SDS011;3021;51.000;6.980;2023-12-29T02:50:07;8.00;;;1.98;;
5987;SDS011;3021;51.000;6.980;2023-12-29T02:52:33;8.05;;;2.08;;
5987;SDS011;3021;51.000;6.980;2023-12-29T02:54:58;11.50;;;1.85;;
5987;SDS011;3021;51.000;6.980;2023-12-29T02:57:23;7.28;;;1.92;;
5987;SDS011;3021;51.000;6.980;2023-12-29T02:59:49;7.60;;;2.63;;
5987;SDS011;3021;51.000;6.980;2023-12-29T03:02:14;6.70;;;1.85;;
5987;SDS011;3021;51.000;6.980;2023-12-29T03:04:39;10.13;;;2.03;;
5987;SDS011;3021;51.000;6.980;2023-12-29T03:07:05;6.32;;;2.08;;
5987;SDS011;3021;51.000;6.980;2023-12-29T03:09:30;10.23;;;1.75;;
5987;SDS011;3021;51.000;6.980;2023-12-29T03:11:55;5.88;;;1.65;;
5987;SDS011;3021;51.000;6.980;2023-12-29T03:14:21;6.57;;;1.55;;
5987;SDS011;3021;51.000;6.980;2023-12-29T03:16:46;8.10;;;1.40;;
5987;SDS011;3021;51.000;6.980;2023-12-29T03:19:11;6.22;;;2.03;;
5987;SDS011;3021;51.000;6.980;2023-12-29T03:21:37;8.13;;;2.10;;
5987;SDS011;3021;51.000;6.980;2023-12-29T03:24:02;7.03;;;1.70;;
5987;SDS011;3021;51.000;6.980;2023-12-29T03:26:27;5.38;;;1.60;;
5987;SDS011;3021;51.000;6.980;2023-12-29T03:28:55;5.45;;;1.60;;
5987;SDS011;3021;51.000;6.980;2023-12-29T03:31:20;7.95;;;1.58;;
5987;SDS011;3021;51.000;6.980;2023-12-29T03:33:46;7.72;;;2.05;;
5987;SDS011;3021;51.000;6.980;2023-12-29T03:36:11;5.13;;;1.50;;
5987;SDS011;3021;51.000;6.980;2023-12-29T03:38:36;6.65;;;1.73;;
5987;SDS011;3021;51.000;6.980;2023-12-29T03:41:03;5.88;;;1.50;;
5987;SDS011;3021;51.000;6.980;2023-12-29T03:43:28;7.25;;;1.73;;
5987;SDS011;3021;51.000;6.980;2023-12-29T03:45:54;8.68;;;1.80;;
5987;SDS011;3021;51.000;6.980;2023-12-29T03:48:19;9.25;;;1.73;;
5987;SDS011;3021;51.000;6.980;2023-12-29T03:50:44;5.82;;;1.70;;
5987;SDS011;3021;51.000;6.980;2023-12-29T03:53:09;8.13;;;1.60;;
5987;SDS011;3021;51.000;6.980;2023-12-29T03:55:35;6.35;;;2.13;;
5987;SDS011;3021;51.000;6.980;2023-12-29T03:58:01;7.22;;;1.67;;
5987;SDS011;3021;51.000;6.980;2023-12-29T04:00:27;6.75;;;1.70;;
5987;SDS011;3021;51.000;6.980;2023-12-29T04:02:52;9.90;;;1.60;;
5987;SDS011;3021;51.000;6.980;2023-12-29T04:05:18;5.53;;;1.10;;
5987;SDS011;3021;51.000;6.980;2023-12-29T04:07:44;4.85;;;1.30;;
5987;SDS011;3021;51.000;6.980;2023-12-29T04:10:09;7.15;;;1.55;;
5987;SDS011;3021;51.000;6.980;2023-12-29T04:12:34;6.90;;;1.20;;
5987;SDS011;3021;51.000;6.980;2023-12-29T04:15:00;5.55;;;1.33;;
5987;SDS011;3021;51.000;6.980;2023-12-29T04:17:26;7.28;;;1.80;;
5987;SDS011;3021;51.000;6.980;2023-12-29T04:19:51;9.25;;;1.58;;
5987;SDS011;3021;51.000;6.980;2023-12-29T04:22:16;3.85;;;1.40;;
5987;SDS011;3021;51.000;6.980;2023-12-29T04:24:41;10.00;;;1.88;;
5987;SDS011;3021;51.000;6.980;2023-12-29T04:27:07;7.18;;;1.52;;
5987;SDS011;3021;51.000;6.980;2023-12-29T04:29:32;9.95;;;1.85;;
5987;SDS011;3021;51.000;6.980;2023-12-29T04:31:57;7.25;;;1.35;;
5987;SDS011;3021;51.000;6.980;2023-12-29T04:34:23;6.15;;;1.63;;
5987;SDS011;3021;51.000;6.980;2023-12-29T04:36:48;8.80;;;2.08;;
5987;SDS011;3021;51.000;6.980;2023-12-29T04:39:13;5.38;;;1.33;;
5987;SDS011;3021;51.000;6.980;2023-12-29T04:41:39;6.07;;;1.40;;
5987;SDS011;3021;51.000;6.980;2023-12-29T04:44:04;8.10;;;1.38;;
5987;SDS011;3021;51.000;6.980;2023-12-29T04:46:29;13.80;;;1.77;;
5987;SDS011;3021;51.000;6.980;2023-12-29T04:48:55;9.43;;;1.90;;
5987;SDS011;3021;51.000;6.980;2023-12-29T04:51:20;10.77;;;1.88;;
5987;SDS011;3021;51.000;6.980;2023-12-29T04:53:45;5.93;;;1.65;;
5987;SDS011;3021;51.000;6.980;2023-12-29T04:56:11;6.60;;;1.70;;
5987;SDS011;3021;51.000;6.980;2023-12-29T04:58:37;6.90;;;1.50;;
5987;SDS011;3021;51.000;6.980;2023-12-29T05:01:02;8.43;;;1.65;;
5987;SDS011;3021;51.000;6.980;2023-12-29T05:03:28;6.18;;;1.02;;
5987;SDS011;3021;51.000;6.980;2023-12-29T05:05:53;7.20;;;1.77;;
5987;SDS011;3021;51.000;6.980;2023-12-29T05:08:18;8.38;;;1.45;;
5987;SDS011;3021;51.000;6.980;2023-12-29T05:10:44;8.90;;;1.63;;
5987;SDS011;3021;51.000;6.980;2023-12-29T05:13:09;6.95;;;1.42;;
5987;SDS011;3021;51.000;6.980;2023-12-29T05:15:34;3.95;;;1.30;;
5987;SDS011;3021;51.000;6.980;2023-12-29T05:18:00;4.25;;;1.63;;
5987;SDS011;3021;51.000;6.980;2023-12-29T05:20:26;8.13;;;1.60;;
5987;SDS011;3021;51.000;6.980;2023-12-29T05:22:51;7.57;;;1.40;;
5987;SDS011;3021;51.000;6.980;2023-12-29T05:25:16;5.22;;;1.40;;
5987;SDS011;3021;51.000;6.980;2023-12-29T05:27:42;8.60;;;1.60;;
5987;SDS011;3021;51.000;6.980;2023-12-29T05:30:07;9.48;;;1.75;;
5987;SDS011;3021;51.000;6.980;2023-12-29T05:32:33;9.48;;;1.50;;
5987;SDS011;3021;51.000;6.980;2023-12-29T05:34:58;6.95;;;1.42;;
5987;SDS011;3021;51.000;6.980;2023-12-29T05:37:24;7.32;;;1.50;;
5987;SDS011;3021;51.000;6.980;2023-12-29T05:39:49;8.00;;;1.75;;
5987;SDS011;3021;51.000;6.980;2023-12-29T05:42:14;6.63;;;1.80;;
5987;SDS011;3021;51.000;6.980;2023-12-29T05:44:40;5.82;;;1.58;;
5987;SDS011;3021;51.000;6.980;2023-12-29T05:47:05;5.72;;;1.30;;
5987;SDS011;3021;51.000;6.980;2023-12-29T05:49:30;5.75;;;1.40;;
5987;SDS011;3021;51.000;6.980;2023-12-29T05:51:57;6.72;;;1.63;;
5987;SDS011;3021;51.000;6.980;2023-12-29T05:54:22;7.75;;;1.58;;
5987;SDS011;3021;51.000;6.980;2023-12-29T05:56:49;10.65;;;1.55;;
5987;SDS011;3021;51.000;6.980;2023-12-29T05:59:15;11.57;;;1.85;;
5987;SDS011;3021;51.000;6.980;2023-12-29T06:01:40;7.30;;;1.50;;
5987;SDS011;3021;51.000;6.980;2023-12-29T06:04:05;5.40;;;1.70;;
5987;SDS011;3021;51.000;6.980;2023-12-29T06:06:31;11.35;;;1.60;;
5987;SDS011;3021;51.000;6.980;2023-12-29T06:08:56;8.93;;;1.77;;
5987;SDS011;3021;51.000;6.980;2023-12-29T06:11:21;7.95;;;1.75;;
5987;SDS011;3021;51.000;6.980;2023-12-29T06:13:47;5.35;;;1.80;;
5987;SDS011;3021;51.000;6.980;2023-12-29T06:16:21;5.30;;;2.00;;
5987;SDS011;3021;51.000;6.980;2023-12-29T06:18:47;7.65;;;1.98;;
5987;SDS011;3021;51.000;6.980;2023-12-29T06:21:12;7.47;;;1.88;;
5987;SDS011;3021;51.000;6.980;2023-12-29T06:23:38;5.28;;;1.52;;
5987;SDS011;3021;51.000;6.980;2023-12-29T06:26:03;6.82;;;1.42;;
5987;SDS011;3021;51.000;6.980;2023-12-29T06:28:29;9.00;;;1.80;;
5987;SDS011;3021;51.000;6.980;2023-12-29T06:30:54;5.18;;;1.50;;
5987;SDS011;3021;51.000;6.980;2023-12-29T06:33:19;4.97;;;1.83;;
5987;SDS011;3021;51.000;6.980;2023-12-29T06:35:48;6.07;;;1.20;;
5987;SDS011;3021;51.000;6.980;2023-12-29T06:38:13;7.25;;;1.95;;
5987;SDS011;3021;51.000;6.980;2023-12-29T06:40:39;5.18;;;1.25;;
5987;SDS011;3021;51.000;6.980;2023-12-29T06:43:04;7.07;;;1.45;;
5987;SDS011;3021;51.000;6.980;2023-12-29T06:45:30;8.68;;;1.63;;
5987;SDS011;3021;51.000;6.980;2023-12-29T06:47:55;9.93;;;1.33;;
5987;SDS011;3021;51.000;6.980;2023-12-29T06:50:20;6.47;;;1.30;;
5987;SDS011;3021;51.000;6.980;2023-12-29T06:52:46;7.10;;;1.60;;
5987;SDS011;3021;51.000;6.980;2023-12-29T06:55:11;9.90;;;1.77;;
5987;SDS011;3021;51.000;6.980;2023-12-29T06:57:37;6.32;;;1.55;;
5987;SDS011;3021;51.000;6.980;2023-12-29T07:00:03;6.13;;;1.40;;
5987;SDS011;3021;51.000;6.980;2023-12-29T07:02:29;5.57;;;1.40;;
5987;SDS011;3021;51.000;6.980;2023-12-29T07:04:54;7.97;;;1.55;;
5987;SDS011;3021;51.000;6.980;2023-12-29T07:07:19;5.35;;;1.20;;
5987;SDS011;3021;51.000;6.980;2023-12-29T07:09:45;5.15;;;1.42;;
5987;SDS011;3021;51.000;6.980;2023-12-29T07:12:10;4.15;;;1.15;;
5987;SDS011;3021;51.000;6.980;2023-12-29T07:14:35;6.50;;;1.50;;
5987;SDS011;3021;51.000;6.980;2023-12-29T07:17:04;6.10;;;1.25;;
5987;SDS011;3021;51.000;6.980;2023-12-29T07:19:29;4.55;;;1.65;;
5987;SDS011;3021;51.000;6.980;2023-12-29T07:22:01;6.22;;;1.30;;
5987;SDS011;3021;51.000;6.980;2023-12-29T07:24:28;6.93;;;1.38;;
5987;SDS011;3021;51.000;6.980;2023-12-29T07:26:53;5.82;;;1.35;;
5987;SDS011;3021;51.000;6.980;2023-12-29T07:29:19;3.95;;;1.50;;
5987;SDS011;3021;51.000;6.980;2023-12-29T07:31:44;5.00;;;1.60;;
5987;SDS011;3021;51.000;6.980;2023-12-29T07:34:10;4.20;;;1.35;;
5987;SDS011;3021;51.000;6.980;2023-12-29T07:36:38;5.43;;;1.17;;
5987;SDS011;3021;51.000;6.980;2023-12-29T07:39:04;5.90;;;1.45;;
5987;SDS011;3021;51.000;6.980;2023-12-29T07:41:29;6.38;;;1.25;;
5987;SDS011;3021;51.000;6.980;2023-12-29T07:43:55;4.15;;;1.38;;
5987;SDS011;3021;51.000;6.980;2023-12-29T07:46:23;5.32;;;1.50;;
5987;SDS011;3021;51.000;6.980;2023-12-29T07:48:50;4.03;;;1.33;;
5987;SDS011;3021;51.000;6.980;2023-12-29T07:51:15;5.20;;;1.58;;
5987;SDS011;3021;51.000;6.980;2023-12-29T07:53:41;2.45;;;1.00;;
5987;SDS011;3021;51.000;6.980;2023-12-29T07:56:06;6.30;;;2.13;;
5987;SDS011;3021;51.000;6.980;2023-12-29T07:58:32;4.82;;;1.10;;
5987;SDS011;3021;51.000;6.980;2023-12-29T08:00:57;6.00;;;1.20;;
5987;SDS011;3021;51.000;6.980;2023-12-29T08:03:22;4.88;;;1.20;;
5987;SDS011;3021;51.000;6.980;2023-12-29T08:05:48;7.72;;;1.45;;
5987;SDS011;3021;51.000;6.980;2023-12-29T08:08:13;7.95;;;1.55;;
5987;SDS011;3021;51.000;6.980;2023-12-29T08:10:39;5.75;;;1.58;;
5987;SDS011;3021;51.000;6.980;2023-12-29T08:13:04;5.68;;;1.40;;
5987;SDS011;3021;51.000;6.980;2023-12-29T08:15:32;6.30;;;1.25;;
5987;SDS011;3021;51.000;6.980;2023-12-29T08:17:57;6.05;;;1.20;;
5987;SDS011;3021;51.000;6.980;2023-12-29T08:20:23;6.97;;;1.38;;
5987;SDS011;3021;51.000;6.980;2023-12-29T08:22:49;4.65;;;1.05;;
5987;SDS011;3021;51.000;6.980;2023-12-29T08:25:14;6.95;;;1.60;;
5987;SDS011;3021;51.000;6.980;2023-12-29T08:27:40;7.10;;;1.70;;
5987;SDS011;3021;51.000;6.980;2023-12-29T08:30:06;12.40;;;1.80;;
5987;SDS011;3021;51.000;6.980;2023-12-29T08:32:32;6.00;;;1.70;;
5987;SDS011;3021;51.000;6.980;2023-12-29T08:34:58;6.10;;;1.67;;
5987;SDS011;3021;51.000;6.980;2023-12-29T08:37:24;5.80;;;1.80;;
5987;SDS011;3021;51.000;6.980;2023-12-29T08:39:49;4.55;;;1.60;;
5987;SDS011;3021;51.000;6.980;2023-12-29T08:42:15;3.13;;;1.20;;
5987;SDS011;3021;51.000;6.980;2023-12-29T08:44:40;3.60;;;1.60;;
5987;SDS011;3021;51.000;6.980;2023-12-29T08:47:06;3.70;;;1.55;;
5987;SDS011;3021;51.000;6.980;2023-12-29T08:49:33;8.63;;;3.70;;
5987;SDS011;3021;51.000;6.980;2023-12-29T08:52:03;14.20;;;2.20;;
5987;SDS011;3021;51.000;6.980;2023-12-29T08:54:28;4.50;;;1.80;;
5987;SDS011;3021;51.000;6.980;2023-12-29T08:56:54;5.93;;;1.80;;
5987;SDS011;3021;51.000;6.980;2023-12-29T08:59:19;3.97;;;1.77;;
5987;SDS011;3021;51.000;6.980;2023-12-29T09:01:44;9.00;;;1.88;;
5987;SDS011;3021;51.000;6.980;2023-12-29T09:04:10;7.35;;;2.08;;
5987;SDS011;3021;51.000;6.980;2023-12-29T09:06:35;4.25;;;1.67;;
5987;SDS011;3021;51.000;6.980;2023-12-29T09:09:00;14.65;;;2.35;;
5987;SDS011;3021;51.000;6.980;2023-12-29T09:11:26;5.40;;;2.03;;
5987;SDS011;3021;51.000;6.980;2023-12-29T09:13:51;5.40;;;2.13;;
5987;SDS011;3021;51.000;6.980;2023-12-29T09:16:17;6.25;;;2.25;;
5987;SDS011;3021;51.000;6.980;2023-12-29T09:18:42;5.45;;;1.75;;
5987;SDS011;3021;51.000;6.980;2023-12-29T09:21:08;5.57;;;1.80;;
5987;SDS011;3021;51.000;6.980;2023-12-29T09:23:33;5.75;;;2.30;;
5987;SDS011;3021;51.000;6.980;2023-12-29T09:25:59;10.38;;;2.38;;
5987;SDS011;3021;51.000;6.980;2023-12-29T09:28:24;5.72;;;1.60;;
5987;SDS011;3021;51.000;6.980;2023-12-29T09:30:50;10.13;;;1.63;;
5987;SDS011;3021;51.000;6.980;2023-12-29T09:33:15;4.80;;;2.03;;
5987;SDS011;3021;51.000;6.980;2023-12-29T09:35:40;6.53;;;2.30;;
5987;SDS011;3021;51.000;6.980;2023-12-29T09:38:06;6.82;;;1.80;;
5987;SDS011;3021;51.000;6.980;2023-12-29T09:40:31;9.88;;;2.50;;
5987;SDS011;3021;51.000;6.980;2023-12-29T09:42:57;9.15;;;2.05;;
5987;SDS011;3021;51.000;6.980;2023-12-29T09:45:25;7.63;;;2.30;;
5987;SDS011;3021;51.000;6.980;2023-12-29T09:47:51;9.75;;;2.00;;
5987;SDS011;3021;51.000;6.980;2023-12-29T09:50:20;9.38;;;2.15;;
5987;SDS011;3021;51.000;6.980;2023-12-29T09:52:47;10.27;;;3.47;;
5987;SDS011;3021;51.000;6.980;2023-12-29T09:55:14;10.20;;;1.85;;
5987;SDS011;3021;51.000;6.980;2023-12-29T09:57:40;4.57;;;1.67;;
5987;SDS011;3021;51.000;6.980;2023-12-29T10:00:06;10.00;;;1.67;;
5987;SDS011;3021;51.000;6.980;2023-12-29T10:02:36;6.45;;;1.75;;
5987;SDS011;3021;51.000;6.980;2023-12-29T10:05:02;6.43;;;1.45;;
5987;SDS011;3021;51.000;6.980;2023-12-29T10:07:28;4.57;;;1.77;;
5987;SDS011;3021;51.000;6.980;2023-12-29T10:10:00;7.20;;;1.70;;
5987;SDS011;3021;51.000;6.980;2023-12-29T10:12:27;4.65;;;1.38;;
5987;SDS011;3021;51.000;6.980;2023-12-29T10:20:33;7.18;;;1.30;;
5987;SDS011;3021;51.000;6.980;2023-12-29T10:23:10;5.45;;;2.28;;
5987;SDS011;3021;51.000;6.980;2023-12-29T10:25:39;4.18;;;1.17;;
5987;SDS011;3021;51.000;6.980;2023-12-29T10:28:08;3.17;;;0.93;;
5987;SDS011;3021;51.000;6.980;2023-12-29T10:30:34;3.58;;;0.93;;
5987;SDS011;3021;51.000;6.980;2023-12-29T10:33:00;3.38;;;1.02;;
5987;SDS011;3021;51.000;6.980;2023-12-29T10:35:28;3.97;;;1.08;;
5987;SDS011;3021;51.000;6.980;2023-12-29T10:37:54;2.63;;;0.98;;
5987;SDS011;3021;51.000;6.980;2023-12-29T10:40:19;3.95;;;1.27;;
5987;SDS011;3021;51.000;6.980;2023-12-29T10:42:55;2.67;;;0.90;;
5987;SDS011;3021;51.000;6.980;2023-12-29T10:45:22;3.00;;;1.02;;
5987;SDS011;3021;51.000;6.980;2023-12-29T10:47:49;4.20;;;0.88;;
5987;SDS011;3021;51.000;6.980;2023-12-29T10:50:15;2.72;;;0.80;;
5987;SDS011;3021;51.000;6.980;2023-12-29T10:52:41;2.70;;;1.30;;
5987;SDS011;3021;51.000;6.980;2023-12-29T10:55:10;3.05;;;1.27;;
5987;SDS011;3021;51.000;6.980;2023-12-29T10:57:36;4.35;;;1.00;;
5987;SDS011;3021;51.000;6.980;2023-12-29T11:00:02;2.95;;;0.90;;
5987;SDS011;3021;51.000;6.980;2023-12-29T11:02:29;4.03;;;0.90;;
5987;SDS011;3021;51.000;6.980;2023-12-29T11:05:01;4.35;;;0.80;;
5987;SDS011;3021;51.000;6.980;2023-12-29T11:07:31;2.83;;;0.85;;
5987;SDS011;3021;51.000;6.980;2023-12-29T11:09:59;3.05;;;0.98;;
5987;SDS011;3021;51.000;6.980;2023-12-29T11:12:27;2.75;;;0.70;;
5987;SDS011;3021;51.000;6.980;2023-12-29T11:14:54;1.92;;;0.85;;
5987;SDS011;3021;51.000;6.980;2023-12-29T11:17:20;3.75;;;0.82;;
5987;SDS011;3021;51.000;6.980;2023-12-29T11:19:47;3.78;;;0.68;;
5987;SDS011;3021;51.000;6.980;2023-12-29T11:22:15;2.50;;;0.57;;
5987;SDS011;3021;51.000;6.980;2023-12-29T11:24:42;3.42;;;0.80;;
5987;SDS011;3021;51.000;6.980;2023-12-29T11:27:09;3.13;;;1.15;;
5987;SDS011;3021;51.000;6.980;2023-12-29T11:29:36;3.45;;;1.00;;
5987;SDS011;3021;51.000;6.980;2023-12-29T11:32:02;3.22;;;0.80;;
5987;SDS011;3021;51.000;6.980;2023-12-29T11:34:34;3.30;;;0.90;;
5987;SDS011;3021;51.000;6.980;2023-12-29T11:37:11;3.10;;;0.80;;
5987;SDS011;3021;51.000;6.980;2023-12-29T11:39:48;1.92;;;0.88;;
5987;SDS011;3021;51.000;6.980;2023-12-29T11:42:47;2.03;;;1.10;;
5987;SDS011;3021;51.000;6.980;2023-12-29T11:45:24;2.88;;;1.30;;
5987;SDS011;3021;51.000;6.980;2023-12-29T11:48:00;2.85;;;0.77;;
5987;SDS011;3021;51.000;6.980;2023-12-29T11:53:31;3.00;;;1.00;;
5987;SDS011;3021;51.000;6.980;2023-12-29T11:55:57;2.85;;;1.02;;
5987;SDS011;3021;51.000;6.980;2023-12-29T11:58:23;4.43;;;0.90;;
5987;SDS011;3021;51.000;6.980;2023-12-29T12:00:51;1.27;;;0.82;;
5987;SDS011;3021;51.000;6.980;2023-12-29T12:03:26;3.85;;;0.82;;
5987;SDS011;3021;51.000;6.980;2023-12-29T12:05:54;4.72;;;1.17;;
5987;SDS011;3021;51.000;6.980;2023-12-29T12:14:01;4.03;;;0.98;;
5987;SDS011;3021;51.000;6.980;2023-12-29T12:19:08;2.03;;;0.75;;
5987;SDS011;3021;51.000;6.980;2023-12-29T12:21:34;2.97;;;1.17;;
5987;SDS011;3021;51.000;6.980;2023-12-29T12:24:03;3.33;;;0.93;;
5987;SDS011;3021;51.000;6.980;2023-12-29T12:26:29;1.65;;;0.80;;
5987;SDS011;3021;51.000;6.980;2023-12-29T12:28:56;4.32;;;1.00;;
5987;SDS011;3021;51.000;6.980;2023-12-29T12:31:22;2.15;;;0.98;;
5987;SDS011;3021;51.000;6.980;2023-12-29T12:33:57;2.58;;;0.90;;
5987;SDS011;3021;51.000;6.980;2023-12-29T12:36:23;1.90;;;0.85;;
5987;SDS011;3021;51.000;6.980;2023-12-29T12:38:56;3.30;;;1.10;;
5987;SDS011;3021;51.000;6.980;2023-12-29T12:41:23;1.58;;;1.00;;
5987;SDS011;3021;51.000;6.980;2023-12-29T12:46:21;3.35;;;0.80;;
5987;SDS011;3021;51.000;6.980;2023-12-29T12:48:51;1.67;;;0.55;;
5987;SDS011;3021;51.000;6.980;2023-12-29T12:51:18;1.23;;;0.40;;
5987;SDS011;3021;51.000;6.980;2023-12-29T12:53:45;2.03;;;0.40;;
5987;SDS011;3021;51.000;6.980;2023-12-29T12:56:12;1.35;;;0.50;;
5987;SDS011;3021;51.000;6.980;2023-12-29T12:58:38;1.42;;;0.75;;
5987;SDS011;3021;51.000;6.980;2023-12-29T13:01:03;3.85;;;0.30;;
5987;SDS011;3021;51.000;6.980;2023-12-29T13:03:29;0.98;;;0.57;;
5987;SDS011;3021;51.000;6.980;2023-12-29T13:05:57;1.17;;;0.47;;
5987;SDS011;3021;51.000;6.980;2023-12-29T13:08:23;1.33;;;0.70;;
5987;SDS011;3021;51.000;6.980;2023-12-29T13:10:50;1.48;;;1.00;;
5987;SDS011;3021;51.000;6.980;2023-12-29T13:13:15;1.50;;;0.82;;
5987;SDS011;3021;51.000;6.980;2023-12-29T13:15:49;1.52;;;1.00;;
5987;SDS011;3021;51.000;6.980;2023-12-29T13:18:15;2.13;;;0.90;;
5987;SDS011;3021;51.000;6.980;2023-12-29T13:20:44;2.03;;;1.00;;
5987;SDS011;3021;51.000;6.980;2023-12-29T13:23:11;2.63;;;1.00;;
5987;SDS011;3021;51.000;6.980;2023-12-29T13:25:36;1.27;;;0.60;;
5987;SDS011;3021;51.000;6.980;2023-12-29T13:28:05;1.38;;;0.63;;
5987;SDS011;3021;51.000;6.980;2023-12-29T13:30:31;2.10;;;0.77;;
5987;SDS011;3021;51.000;6.980;2023-12-29T13:32:57;2.10;;;1.23;;
5987;SDS011;3021;51.000;6.980;2023-12-29T13:35:25;3.50;;;1.00;;
5987;SDS011;3021;51.000;6.980;2023-12-29T13:42:59;2.28;;;0.60;;
5987;SDS011;3021;51.000;6.980;2023-12-29T13:45:28;0.80;;;0.60;;
5987;SDS011;3021;51.000;6.980;2023-12-29T13:47:55;2.20;;;0.65;;
5987;SDS011;3021;51.000;6.980;2023-12-29T13:50:21;1.88;;;0.85;;
5987;SDS011;3021;51.000;6.980;2023-12-29T13:52:46;0.50;;;0.40;;
5987;SDS011;3021;51.000;6.980;2023-12-29T13:55:12;1.75;;;0.60;;
5987;SDS011;3021;51.000;6.980;2023-12-29T13:57:46;1.10;;;0.60;;
5987;SDS011;3021;51.000;6.980;2023-12-29T14:00:18;2.65;;;0.65;;
5987;SDS011;3021;51.000;6.980;2023-12-29T14:02:48;2.05;;;0.80;;
5987;SDS011;3021;51.000;6.980;2023-12-29T14:05:32;0.95;;;0.63;;
5987;SDS011;3021;51.000;6.980;2023-12-29T14:10:32;1.98;;;0.70;;
5987;SDS011;3021;51.000;6.980;2023-12-29T14:13:08;1.55;;;0.75;;
5987;SDS011;3021;51.000;6.980;2023-12-29T14:15:44;1.48;;;0.60;;
5987;SDS011;3021;51.000;6.980;2023-12-29T14:21:00;2.00;;;0.77;;
5987;SDS011;3021;51.000;6.980;2023-12-29T14:23:25;2.58;;;1.00;;
5987;SDS011;3021;51.000;6.980;2023-12-29T14:25:51;2.28;;;0.90;;
5987;SDS011;3021;51.000;6.980;2023-12-29T14:28:20;2.47;;;0.63;;
5987;SDS011;3021;51.000;6.980;2023-12-29T14:30:47;5.20;;;1.65;;
5987;SDS011;3021;51.000;6.980;2023-12-29T14:33:12;2.30;;;1.25;;
5987;SDS011;3021;51.000;6.980;2023-12-29T14:35:38;2.25;;;1.05;;
5987;SDS011;3021;51.000;6.980;2023-12-29T14:38:03;2.08;;;1.00;;
5987;SDS011;3021;51.000;6.980;2023-12-29T14:40:29;2.28;;;0.80;;
5987;SDS011;3021;51.000;6.980;2023-12-29T14:42:54;0.90;;;0.75;;
5987;SDS011;3021;51.000;6.980;2023-12-29T14:45:20;1.98;;;1.00;;
5987;SDS011;3021;51.000;6.980;2023-12-29T14:47:45;2.13;;;0.90;;
5987;SDS011;3021;51.000;6.980;2023-12-29T14:50:11;1.35;;;0.90;;
5987;SDS011;3021;51.000;6.980;2023-12-29T14:52:37;3.70;;;1.00;;
5987;SDS011;3021;51.000;6.980;2023-12-29T14:55:03;4.18;;;1.38;;
5987;SDS011;3021;51.000;6.980;2023-12-29T14:57:29;1.75;;;1.00;;
5987;SDS011;3021;51.000;6.980;2023-12-29T14:59:54;1.48;;;0.65;;
5987;SDS011;3021;51.000;6.980;2023-12-29T15:02:20;1.88;;;1.20;;
5987;SDS011;3021;51.000;6.980;2023-12-29T15:04:45;3.97;;;1.27;;
5987;SDS011;3021;51.000;6.980;2023-12-29T15:07:10;3.20;;;1.10;;
5987;SDS011;3021;51.000;6.980;2023-12-29T15:09:37;4.15;;;1.85;;
5987;SDS011;3021;51.000;6.980;2023-12-29T15:12:02;2.22;;;1.17;;
5987;SDS011;3021;51.000;6.980;2023-12-29T15:14:29;1.65;;;1.00;;
5987;SDS011;3021;51.000;6.980;2023-12-29T15:16:55;1.92;;;1.13;;
5987;SDS011;3021;51.000;6.980;2023-12-29T15:19:20;3.35;;;1.20;;
5987;SDS011;3021;51.000;6.980;2023-12-29T15:21:46;2.80;;;1.20;;
5987;SDS011;3021;51.000;6.980;2023-12-29T15:24:11;2.00;;;0.90;;
5987;SDS011;3021;51.000;6.980;2023-12-29T15:26:36;1.88;;;0.90;;
5987;SDS011;3021;51.000;6.980;2023-12-29T15:29:02;2.05;;;1.10;;
5987;SDS011;3021;51.000;6.980;2023-12-29T15:31:27;2.53;;;1.33;;
5987;SDS011;3021;51.000;6.980;2023-12-29T15:33:53;3.80;;;1.65;;
5987;SDS011;3021;51.000;6.980;2023-12-29T15:36:18;2.47;;;1.25;;
5987;SDS011;3021;51.000;6.980;2023-12-29T15:38:51;4.28;;;1.23;;
5987;SDS011;3021;51.000;6.980;2023-12-29T15:41:16;2.60;;;1.27;;
5987;SDS011;3021;51.000;6.980;2023-12-29T15:43:42;2.83;;;1.02;;
5987;SDS011;3021;51.000;6.980;2023-12-29T15:46:17;1.45;;;0.80;;